createdAt,value
2018-12-04T00:09:47.781Z,69.13
2018-12-04T00:19:34.394Z,75.07
2018-12-04T00:26:29.303Z,70.87
2018-12-04T00:28:58.330Z,73.77
2018-12-04T00:31:27.426Z,84.30
2018-12-04T00:33:56.481Z,87.60
2018-12-04T00:36:25.497Z,77.80
2018-12-04T00:38:54.550Z,89.30
2018-12-04T00:41:23.559Z,89.90
2018-12-04T00:43:52.646Z,93.00
2018-12-04T00:46:21.782Z,87.50
2018-12-04T00:48:50.790Z,92.83
2018-12-04T00:51:19.779Z,91.57
2018-12-04T00:53:48.801Z,81.33
2018-12-04T00:56:17.844Z,82.30
2018-12-04T00:58:46.984Z,79.57
2018-12-04T01:01:16.002Z,80.00
2018-12-04T01:03:45.056Z,81.73
2018-12-04T01:06:14.055Z,78.27
2018-12-04T01:08:43.179Z,74.10
2018-12-04T01:11:12.281Z,72.17
2018-12-04T01:13:41.331Z,71.20
2018-12-04T01:16:10.376Z,73.20
2018-12-04T01:18:39.433Z,71.00
2018-12-04T01:21:08.461Z,80.07
2018-12-04T01:23:37.498Z,79.43
2018-12-04T01:26:06.529Z,75.30
2018-12-04T01:28:35.537Z,77.17
2018-12-04T01:31:04.658Z,79.20
2018-12-04T01:33:33.705Z,74.87
2018-12-04T01:36:02.881Z,73.00
2018-12-04T01:38:31.957Z,67.37
2018-12-04T01:41:00.953Z,70.97
2018-12-04T01:43:30.111Z,70.77
2018-12-04T01:45:59.194Z,68.70
2018-12-04T01:48:28.247Z,76.87
2018-12-04T01:50:57.461Z,75.33
2018-12-04T01:53:26.728Z,76.27
2018-12-04T01:55:55.844Z,71.37
2018-12-04T01:58:25.157Z,73.30
2018-12-04T02:00:54.312Z,68.10
2018-12-04T02:03:23.307Z,70.97
2018-12-04T02:05:52.445Z,70.43
2018-12-04T02:08:21.493Z,70.73
2018-12-04T02:10:50.510Z,70.40
2018-12-04T02:13:19.557Z,67.43
2018-12-04T02:15:48.624Z,71.27
2018-12-04T02:18:17.760Z,66.70
2018-12-04T02:20:46.774Z,71.03
2018-12-04T02:23:15.797Z,70.37
2018-12-04T02:25:44.977Z,67.33
2018-12-04T02:28:14.083Z,68.27
2018-12-04T02:30:43.135Z,68.80
2018-12-04T02:33:12.138Z,66.33
2018-12-04T02:35:41.161Z,65.50
2018-12-04T02:38:10.326Z,66.33
2018-12-04T02:40:39.505Z,70.90
2018-12-04T02:43:08.554Z,62.53
2018-12-04T02:45:37.694Z,63.33
2018-12-04T02:48:06.830Z,68.33
2018-12-04T02:50:35.904Z,68.80
2018-12-04T02:53:05.003Z,69.23
2018-12-04T02:55:33.991Z,71.47
2018-12-04T02:58:03.074Z,73.23
2018-12-04T03:00:32.091Z,71.40
2018-12-04T03:03:01.194Z,73.17
2018-12-04T03:05:30.265Z,70.33
2018-12-04T03:07:59.315Z,70.83
2018-12-04T03:10:28.369Z,76.13
2018-12-04T03:12:57.433Z,72.83
2018-12-04T03:15:26.579Z,77.37
2018-12-04T03:17:55.580Z,80.13
2018-12-04T03:20:24.831Z,84.43
2018-12-04T03:22:53.933Z,76.20
2018-12-04T03:25:22.960Z,81.40
2018-12-04T03:27:51.972Z,77.43
2018-12-04T03:30:23.093Z,77.27
2018-12-04T03:32:52.158Z,75.17
2018-12-04T03:35:21.242Z,79.77
2018-12-04T03:37:50.381Z,74.30
2018-12-04T03:40:19.431Z,70.77
2018-12-04T03:42:48.438Z,69.83
2018-12-04T03:45:17.485Z,70.27
2018-12-04T03:47:46.473Z,72.97
2018-12-04T03:50:15.589Z,73.37
2018-12-04T03:52:44.717Z,76.90
2018-12-04T03:55:13.815Z,74.10
2018-12-04T03:57:42.834Z,75.20
2018-12-04T04:00:11.860Z,75.10
2018-12-04T04:02:41.177Z,77.47
2018-12-04T04:05:10.268Z,73.87
2018-12-04T04:07:39.339Z,74.63
2018-12-04T04:10:08.636Z,71.47
2018-12-04T04:12:37.676Z,78.97
2018-12-04T04:15:06.930Z,74.00
2018-12-04T04:17:36.075Z,77.33
2018-12-04T04:20:05.621Z,75.00
2018-12-04T04:22:34.677Z,76.97
2018-12-04T04:25:03.700Z,73.70
2018-12-04T04:27:32.786Z,79.67
2018-12-04T04:30:01.858Z,78.63
2018-12-04T04:32:31.094Z,72.20
2018-12-04T04:35:02.131Z,74.50
2018-12-04T04:37:31.283Z,80.43
2018-12-04T04:40:00.469Z,91.30
2018-12-04T04:42:29.540Z,106.03
2018-12-04T04:44:58.605Z,131.30
2018-12-04T04:47:27.720Z,130.87
2018-12-04T04:49:56.779Z,127.53
2018-12-04T04:52:25.851Z,106.27
2018-12-04T04:54:54.889Z,103.10
2018-12-04T04:57:23.899Z,98.30
2018-12-04T04:59:52.930Z,95.80
2018-12-04T05:02:21.941Z,93.83
2018-12-04T05:04:50.978Z,97.37
2018-12-04T05:07:20.283Z,107.73
2018-12-04T05:09:50.495Z,98.70
2018-12-04T05:12:19.590Z,98.47
2018-12-04T05:14:48.642Z,94.77
2018-12-04T05:17:17.722Z,98.30
2018-12-04T05:19:46.754Z,103.37
2018-12-04T05:22:15.862Z,90.37
2018-12-04T05:24:44.889Z,92.67
2018-12-04T05:27:13.898Z,90.97
2018-12-04T05:29:43.189Z,93.07
2018-12-04T05:32:12.214Z,86.67
2018-12-04T05:34:41.217Z,90.17
2018-12-04T05:37:10.630Z,87.33
2018-12-04T05:39:39.686Z,86.90
2018-12-04T05:42:08.681Z,89.90
2018-12-04T05:44:37.910Z,95.47
2018-12-04T05:47:06.931Z,99.67
2018-12-04T05:49:36.015Z,96.97
2018-12-04T05:52:05.086Z,100.40
2018-12-04T05:54:34.157Z,100.40
2018-12-04T05:57:03.166Z,99.90
2018-12-04T05:59:32.230Z,97.93
2018-12-04T06:02:01.506Z,94.47
2018-12-04T06:04:30.597Z,98.17
2018-12-04T06:07:00.758Z,90.40
2018-12-04T06:09:29.834Z,90.57
2018-12-04T06:11:58.879Z,101.77
2018-12-04T06:14:27.951Z,89.30
2018-12-04T06:16:56.942Z,89.60
2018-12-04T06:19:26.116Z,85.27
2018-12-04T06:21:55.149Z,89.30
2018-12-04T06:24:24.191Z,92.13
2018-12-04T06:26:53.349Z,96.70
2018-12-04T06:29:22.390Z,92.97
2018-12-04T06:31:51.633Z,91.80
2018-12-04T06:34:20.711Z,92.37
2018-12-04T06:36:49.849Z,89.93
2018-12-04T06:39:18.927Z,95.73
2018-12-04T06:41:47.975Z,106.97
2018-12-04T06:44:17.145Z,90.63
2018-12-04T06:46:46.166Z,93.97
2018-12-04T06:49:15.185Z,98.07
2018-12-04T06:51:44.395Z,103.63
2018-12-04T06:54:13.454Z,94.30
2018-12-04T06:56:42.522Z,99.90
2018-12-04T06:59:11.620Z,97.30
2018-12-04T07:01:40.742Z,101.00
2018-12-04T07:04:09.798Z,91.77
2018-12-04T07:06:38.954Z,96.57
2018-12-04T07:09:08.437Z,97.20
2018-12-04T07:11:37.609Z,97.20
2018-12-04T07:14:06.638Z,91.00
2018-12-04T07:16:35.761Z,92.47
2018-12-04T07:19:04.793Z,88.20
2018-12-04T07:21:34.114Z,95.43
2018-12-04T07:24:03.185Z,90.17
2018-12-04T07:26:32.266Z,87.37
2018-12-04T07:29:01.345Z,90.30
2018-12-04T07:31:30.377Z,93.60
2018-12-04T07:33:59.500Z,95.17
2018-12-04T07:36:28.517Z,93.97
2018-12-04T07:38:57.558Z,89.53
2018-12-04T07:41:26.563Z,94.67
2018-12-04T07:43:55.694Z,91.50
2018-12-04T07:46:24.709Z,89.90
2018-12-04T07:48:53.717Z,94.70
2018-12-04T07:51:22.780Z,89.73
2018-12-04T07:53:51.814Z,92.83
2018-12-04T07:56:20.944Z,85.33
2018-12-04T07:58:50.118Z,85.70
2018-12-04T08:01:19.226Z,84.90
2018-12-04T08:03:48.275Z,82.90
2018-12-04T08:06:17.313Z,94.27
2018-12-04T08:08:46.395Z,91.67
2018-12-04T08:11:15.501Z,95.20
2018-12-04T08:13:44.643Z,89.30
2018-12-04T08:16:13.625Z,85.00
2018-12-04T08:18:42.641Z,85.80
2018-12-04T08:21:11.740Z,89.80
2018-12-04T08:23:40.863Z,86.63
2018-12-04T08:26:09.926Z,101.23
2018-12-04T08:28:38.974Z,97.77
2018-12-04T08:31:07.990Z,91.17
2018-12-04T08:33:37.026Z,88.17
2018-12-04T08:36:06.172Z,88.33
2018-12-04T08:38:35.241Z,84.93
2018-12-04T08:41:04.323Z,74.37
2018-12-04T08:43:33.449Z,78.10
2018-12-04T08:46:02.435Z,75.60
2018-12-04T08:48:31.463Z,74.57
2018-12-04T08:51:00.494Z,75.73
2018-12-04T08:53:29.515Z,76.60
2018-12-04T08:55:58.610Z,81.37
2018-12-04T08:58:27.761Z,79.00
2018-12-04T09:00:56.866Z,78.27
2018-12-04T09:03:25.929Z,77.13
2018-12-04T09:05:55.029Z,80.43
2018-12-04T09:08:24.050Z,78.33
2018-12-04T09:10:53.094Z,77.03
2018-12-04T09:13:22.267Z,84.07
2018-12-04T09:15:51.421Z,79.57
2018-12-04T09:18:20.551Z,83.13
2018-12-04T09:20:49.831Z,82.23
2018-12-04T09:23:19.003Z,79.40
2018-12-04T09:25:48.139Z,82.50
2018-12-04T09:28:17.402Z,84.23
2018-12-04T09:30:48.456Z,77.37
2018-12-04T09:33:17.497Z,82.73
2018-12-04T09:35:46.586Z,86.80
2018-12-04T09:38:16.798Z,90.90
2018-12-04T09:40:46.954Z,86.33
2018-12-04T09:43:15.989Z,92.37
2018-12-04T09:45:45.031Z,100.27
2018-12-04T09:48:14.302Z,110.13
2018-12-04T09:50:43.377Z,108.90
2018-12-04T09:53:12.457Z,100.40
2018-12-04T09:55:41.762Z,99.53
2018-12-04T09:58:10.847Z,90.40
2018-12-04T10:00:39.922Z,85.77
2018-12-04T10:03:08.957Z,91.37
2018-12-04T10:05:38.042Z,89.97
2018-12-04T10:08:07.154Z,90.40
2018-12-04T10:10:36.339Z,89.83
2018-12-04T10:13:05.467Z,89.33
2018-12-04T10:15:34.652Z,86.93
2018-12-04T10:18:04.880Z,82.73
2018-12-04T10:20:33.983Z,82.93
2018-12-04T10:23:02.994Z,86.33
2018-12-04T10:25:32.034Z,84.50
2018-12-04T10:28:01.190Z,83.83
2018-12-04T10:30:30.954Z,81.47
2018-12-04T10:33:00.025Z,79.40
2018-12-04T10:35:29.063Z,84.63
2018-12-04T10:37:58.072Z,79.23
2018-12-04T10:40:28.154Z,76.63
2018-12-04T10:42:57.226Z,79.33
2018-12-04T10:45:26.377Z,77.20
2018-12-04T10:47:55.455Z,78.53
2018-12-04T10:50:24.609Z,85.00
2018-12-04T10:52:53.636Z,80.97
2018-12-04T10:55:22.724Z,83.20
2018-12-04T10:57:51.790Z,88.30
2018-12-04T11:00:26.052Z,93.27
2018-12-04T11:02:59.331Z,88.70
2018-12-04T11:05:28.398Z,86.50
2018-12-04T11:07:57.481Z,79.13
2018-12-04T11:10:26.607Z,87.10
2018-12-04T11:12:55.701Z,80.20
2018-12-04T11:15:24.717Z,78.83
2018-12-04T11:17:53.916Z,79.40
2018-12-04T11:20:22.992Z,77.97
2018-12-04T11:22:52.209Z,75.83
2018-12-04T11:25:21.243Z,77.13
2018-12-04T11:27:50.372Z,79.27
2018-12-04T11:30:19.492Z,74.37
2018-12-04T11:32:48.590Z,74.13
2018-12-04T11:35:17.648Z,79.10
2018-12-04T11:37:46.769Z,72.80
2018-12-04T11:40:15.868Z,74.13
2018-12-04T11:42:45.137Z,77.97
2018-12-04T11:45:14.132Z,73.43
2018-12-04T11:47:43.333Z,79.50
2018-12-04T11:50:12.509Z,73.77
2018-12-04T11:52:41.646Z,75.50
2018-12-04T11:55:10.671Z,73.70
2018-12-04T11:57:39.770Z,66.27
2018-12-04T12:00:16.148Z,67.80
2018-12-04T12:02:45.159Z,65.07
2018-12-04T12:05:14.370Z,65.37
2018-12-04T12:07:45.474Z,72.53
2018-12-04T12:10:14.530Z,71.77
2018-12-04T12:12:43.606Z,73.87
2018-12-04T12:15:17.842Z,73.33
2018-12-04T12:17:43.891Z,77.17
2018-12-04T12:20:13.000Z,75.70
2018-12-04T12:22:42.121Z,71.23
2018-12-04T12:25:11.136Z,77.53
2018-12-04T12:27:40.230Z,84.93
2018-12-04T12:30:10.512Z,76.83
2018-12-04T12:32:39.691Z,77.13
2018-12-04T12:35:08.797Z,74.53
2018-12-04T12:37:37.867Z,65.00
2018-12-04T12:40:08.586Z,63.83
2018-12-04T12:42:37.678Z,62.80
2018-12-04T12:45:09.221Z,65.67
2018-12-04T12:47:38.383Z,60.73
2018-12-04T12:50:08.882Z,64.37
2018-12-04T12:52:37.980Z,63.53
2018-12-04T12:55:07.196Z,65.30
2018-12-04T12:57:36.281Z,68.07
2018-12-04T13:00:07.240Z,68.73
2018-12-04T13:02:36.484Z,69.57
2018-12-04T13:05:05.746Z,70.20
2018-12-04T13:07:34.763Z,69.37
2018-12-04T13:10:03.927Z,60.57
2018-12-04T13:12:32.979Z,60.80
2018-12-04T13:15:02.003Z,65.77
2018-12-04T13:17:31.447Z,62.70
2018-12-04T13:20:00.499Z,62.57
2018-12-04T13:22:29.530Z,64.33
2018-12-04T13:24:58.668Z,60.53
2018-12-04T13:27:27.685Z,59.27
2018-12-04T13:29:56.795Z,58.77
2018-12-04T13:32:25.906Z,60.47
2018-12-04T13:34:54.969Z,62.43
2018-12-04T13:37:24.033Z,57.40
2018-12-04T13:39:53.078Z,55.93
2018-12-04T13:42:22.149Z,56.17
2018-12-04T13:44:51.250Z,59.10
2018-12-04T13:47:20.541Z,58.40
2018-12-04T13:49:49.651Z,52.53
2018-12-04T13:52:18.750Z,51.50
2018-12-04T13:54:48.100Z,57.03
2018-12-04T13:57:17.287Z,51.83
2018-12-04T13:59:46.322Z,47.07
2018-12-04T14:02:15.423Z,42.60
2018-12-04T14:04:44.609Z,38.63
2018-12-04T14:07:13.712Z,39.77
2018-12-04T14:09:42.902Z,43.83
2018-12-04T14:12:11.963Z,41.97
2018-12-04T14:14:41.046Z,42.07
2018-12-04T14:17:10.261Z,36.30
2018-12-04T14:19:39.520Z,34.53
2018-12-04T14:22:08.568Z,30.23
2018-12-04T14:24:37.650Z,30.53
2018-12-04T14:27:06.845Z,28.27
2018-12-04T14:29:36.257Z,23.27
2018-12-04T14:32:05.460Z,19.83
2018-12-04T14:34:35.513Z,20.87
2018-12-04T14:37:04.611Z,17.63
2018-12-04T14:39:33.863Z,17.80
2018-12-04T14:42:02.989Z,14.80
2018-12-04T14:44:32.299Z,15.03
2018-12-04T14:47:01.653Z,13.77
2018-12-04T14:49:30.689Z,16.00
2018-12-04T14:51:59.862Z,12.23
2018-12-04T14:54:28.897Z,11.60
2018-12-04T14:56:58.040Z,10.23
2018-12-04T14:59:27.166Z,10.60
2018-12-04T15:01:56.425Z,11.60
2018-12-04T15:04:25.628Z,11.23
2018-12-04T15:06:55.879Z,10.50
2018-12-04T15:09:25.568Z,10.70
2018-12-04T15:11:54.671Z,9.93
2018-12-04T15:14:23.816Z,10.23
2018-12-04T15:16:55.078Z,10.97
2018-12-04T15:19:24.114Z,10.13
2018-12-04T15:21:53.411Z,10.10
2018-12-04T15:24:22.653Z,10.33
2018-12-04T15:26:51.810Z,10.23
2018-12-04T15:29:21.095Z,10.87
2018-12-04T15:31:50.273Z,10.50
2018-12-04T15:34:19.492Z,10.63
2018-12-04T15:36:48.700Z,10.37
2018-12-04T15:39:17.794Z,9.77
2018-12-04T15:41:46.904Z,9.40
2018-12-04T15:44:17.199Z,9.80
2018-12-04T15:46:46.316Z,8.80
2018-12-04T15:49:15.461Z,10.13
2018-12-04T15:51:44.545Z,11.30
2018-12-04T15:54:13.552Z,11.27
2018-12-04T15:56:42.809Z,11.63
2018-12-04T15:59:12.080Z,10.47
2018-12-04T16:01:41.145Z,11.33
2018-12-04T16:04:10.168Z,9.67
2018-12-04T16:06:39.214Z,8.50
2018-12-04T16:09:08.426Z,9.43
2018-12-04T16:11:37.562Z,9.13
2018-12-04T16:14:06.658Z,8.33
2018-12-04T16:16:35.646Z,10.93
2018-12-04T16:19:04.670Z,10.90
2018-12-04T16:21:33.781Z,9.93
2018-12-04T16:24:02.872Z,10.37
2018-12-04T16:26:32.003Z,9.73
2018-12-04T16:29:01.315Z,8.03
2018-12-04T16:31:30.297Z,9.60
2018-12-04T16:33:59.313Z,9.20
2018-12-04T16:36:28.457Z,8.67
2018-12-04T16:38:57.508Z,7.93
2018-12-04T16:41:26.502Z,7.70
2018-12-04T16:43:55.606Z,8.00
2018-12-04T16:46:24.742Z,7.43
2018-12-04T16:48:53.760Z,6.93
2018-12-04T16:51:22.959Z,7.67
2018-12-04T16:53:51.993Z,7.50
2018-12-04T16:56:21.051Z,7.97
2018-12-04T16:58:50.472Z,8.93
2018-12-04T17:01:19.470Z,9.37
2018-12-04T17:03:48.534Z,9.43
2018-12-04T17:06:17.594Z,9.97
2018-12-04T17:08:46.771Z,10.47
2018-12-04T17:11:15.773Z,11.47
2018-12-04T17:13:44.975Z,12.93
2018-12-04T17:16:14.099Z,13.00
2018-12-04T17:18:43.174Z,14.03
2018-12-04T17:21:12.215Z,15.77
2018-12-04T17:23:41.342Z,14.40
2018-12-04T17:26:10.474Z,11.40
2018-12-04T17:28:39.606Z,11.30
2018-12-04T17:31:08.615Z,10.63
2018-12-04T17:33:37.635Z,10.40
2018-12-04T17:36:06.681Z,10.50
2018-12-04T17:38:35.711Z,10.53
2018-12-04T17:41:04.963Z,10.33
2018-12-04T17:43:34.071Z,9.97
2018-12-04T17:46:04.094Z,10.90
2018-12-04T17:48:34.386Z,11.40
2018-12-04T17:51:03.532Z,11.53
2018-12-04T17:53:32.549Z,11.87
2018-12-04T17:56:03.637Z,11.33
2018-12-04T17:58:32.777Z,10.60
2018-12-04T18:01:01.899Z,11.00
2018-12-04T18:03:32.946Z,10.70
2018-12-04T18:06:02.077Z,10.20
2018-12-04T18:08:31.241Z,10.63
2018-12-04T18:11:02.362Z,11.00
2018-12-04T18:13:31.753Z,11.07
2018-12-04T18:16:02.901Z,12.13
2018-12-04T18:18:32.143Z,11.67
2018-12-04T18:21:01.461Z,10.67
2018-12-04T18:23:30.645Z,11.10
2018-12-04T18:25:59.893Z,11.23
2018-12-04T18:28:29.166Z,10.87
2018-12-04T18:30:58.266Z,10.47
2018-12-04T18:33:27.462Z,10.67
2018-12-04T18:35:56.582Z,10.77
2018-12-04T18:38:25.701Z,10.20
2018-12-04T18:40:54.845Z,10.50
2018-12-04T18:43:24.323Z,14.20
2018-12-04T18:45:53.329Z,11.20
2018-12-04T18:48:22.431Z,11.50
2018-12-04T18:50:51.644Z,11.57
2018-12-04T18:53:20.893Z,9.50
2018-12-04T18:55:49.937Z,10.73
2018-12-04T18:58:18.961Z,9.43
2018-12-04T19:00:48.023Z,9.13
2018-12-04T19:03:17.130Z,8.80
2018-12-04T19:05:46.201Z,9.83
2018-12-04T19:08:15.257Z,10.17
2018-12-04T19:10:44.330Z,9.27
2018-12-04T19:13:13.453Z,9.00
2018-12-04T19:15:42.570Z,8.67
2018-12-04T19:18:12.284Z,9.03
2018-12-04T19:20:41.378Z,8.97
2018-12-04T19:23:10.425Z,9.90
2018-12-04T19:25:39.722Z,10.50
2018-12-04T19:28:08.933Z,11.07
2018-12-04T19:30:38.146Z,9.40
2018-12-04T19:33:07.218Z,10.17
2018-12-04T19:35:36.396Z,14.47
2018-12-04T19:38:05.426Z,14.87
2018-12-04T19:40:34.871Z,16.57
2018-12-04T19:43:04.049Z,14.50
2018-12-04T19:45:33.240Z,13.03
2018-12-04T19:48:03.229Z,13.43
2018-12-04T19:50:32.668Z,13.00
2018-12-04T19:53:02.425Z,14.53
2018-12-04T19:55:31.592Z,15.07
2018-12-04T19:58:00.638Z,13.83
2018-12-04T20:00:29.902Z,13.47
2018-12-04T20:02:58.928Z,12.87
2018-12-04T20:05:28.074Z,12.93
2018-12-04T20:08:00.246Z,12.70
2018-12-04T20:10:29.306Z,12.37
2018-12-04T20:12:59.242Z,12.20
2018-12-04T20:21:24.581Z,10.77
2018-12-04T20:23:53.592Z,10.63
2018-12-04T20:26:23.778Z,11.17
2018-12-04T20:28:52.859Z,11.30
2018-12-04T20:31:21.891Z,11.70
2018-12-04T20:33:52.327Z,12.13
2018-12-04T20:36:22.410Z,10.37
2018-12-04T20:38:51.902Z,11.40
2018-12-04T20:41:20.986Z,10.77
2018-12-04T20:43:50.038Z,10.47
2018-12-04T20:46:19.082Z,10.20
2018-12-04T20:48:48.345Z,11.87
2018-12-04T20:51:17.447Z,11.57
2018-12-04T20:53:46.780Z,10.83
2018-12-04T20:56:15.830Z,11.63
2018-12-04T20:58:44.865Z,11.00
2018-12-04T21:01:13.958Z,11.23
2018-12-04T21:03:42.948Z,12.20
2018-12-04T21:06:12.201Z,13.33
2018-12-04T21:08:41.243Z,12.17
2018-12-04T21:11:10.258Z,11.80
2018-12-04T21:13:39.278Z,12.00
2018-12-04T21:16:08.357Z,11.17
2018-12-04T21:18:37.489Z,11.10
2018-12-04T21:21:06.499Z,12.20
2018-12-04T21:23:35.567Z,11.67
2018-12-04T21:26:04.762Z,11.20
2018-12-04T21:28:33.829Z,10.50
2018-12-04T21:31:08.001Z,10.10
2018-12-04T21:33:42.470Z,10.77
2018-12-04T21:36:16.753Z,10.63
2018-12-04T21:38:51.185Z,10.00
2018-12-04T21:42:27.302Z,10.17
2018-12-04T21:45:01.762Z,10.30
2018-12-04T21:47:36.362Z,11.13
2018-12-04T21:50:05.645Z,11.53
2018-12-04T21:52:34.756Z,12.57
2018-12-04T21:55:03.938Z,13.43
2018-12-04T21:57:33.011Z,13.77
2018-12-04T22:00:02.009Z,14.73
2018-12-04T22:02:33.114Z,15.10
2018-12-04T22:05:02.147Z,15.00
2018-12-04T22:07:31.301Z,15.93
2018-12-04T22:10:00.312Z,13.50
2018-12-04T22:12:29.409Z,13.80
2018-12-04T22:14:58.481Z,14.80
2018-12-04T22:17:27.485Z,13.97
2018-12-04T22:19:56.581Z,13.33
2018-12-04T22:22:25.666Z,12.10
2018-12-04T22:24:54.758Z,13.00
2018-12-04T22:27:23.782Z,14.30
2018-12-04T22:29:52.977Z,16.00
2018-12-04T22:32:22.026Z,14.93
2018-12-04T22:34:51.045Z,16.10
2018-12-04T22:37:20.150Z,19.57
2018-12-04T22:39:51.137Z,21.40
2018-12-04T22:42:20.179Z,20.00
2018-12-04T22:44:49.179Z,21.00
2018-12-04T22:47:18.216Z,19.43
2018-12-04T22:49:47.402Z,18.80
2018-12-04T22:52:16.499Z,17.33
2018-12-04T22:54:45.678Z,18.10
2018-12-04T22:57:14.706Z,15.37
2018-12-04T22:59:43.812Z,14.03
2018-12-04T23:02:12.914Z,14.90
2018-12-04T23:04:42.138Z,15.07
2018-12-04T23:07:11.151Z,13.53
2018-12-04T23:09:40.221Z,13.90
2018-12-04T23:12:09.479Z,14.33
2018-12-04T23:14:38.550Z,13.03
2018-12-04T23:17:07.608Z,11.57
2018-12-04T23:19:36.734Z,12.23
2018-12-04T23:22:05.874Z,13.10
2018-12-04T23:24:35.050Z,13.20
2018-12-04T23:27:04.239Z,12.63
2018-12-04T23:29:33.226Z,12.80
2018-12-04T23:32:02.281Z,13.80
2018-12-04T23:34:31.411Z,12.33
2018-12-04T23:37:00.496Z,12.67
2018-12-04T23:39:29.479Z,13.07
2018-12-04T23:41:58.672Z,12.80
2018-12-04T23:44:27.651Z,12.30
2018-12-04T23:46:56.818Z,10.80
2018-12-04T23:49:25.935Z,12.20
2018-12-04T23:51:55.049Z,11.47
2018-12-04T23:54:24.111Z,10.70
2018-12-04T23:56:53.127Z,10.63
2018-12-04T23:59:22.142Z,10.37
